createdAt,value
2019-04-03T00:01:44.382Z,94.00
2019-04-03T00:04:11.828Z,94.20
2019-04-03T00:06:39.177Z,94.60
2019-04-03T00:09:07.107Z,94.70
2019-04-03T00:11:34.583Z,95.00
2019-04-03T00:14:01.909Z,95.10
2019-04-03T00:16:29.261Z,95.30
2019-04-03T00:18:56.494Z,95.50
2019-04-03T00:21:23.864Z,95.50
2019-04-03T00:23:52.619Z,95.60
2019-04-03T00:26:22.075Z,95.70
2019-04-03T00:28:50.715Z,95.80
2019-04-03T00:31:18.946Z,95.90
2019-04-03T00:33:46.283Z,95.90
2019-04-03T00:36:13.638Z,95.90
2019-04-03T00:38:40.983Z,95.90
2019-04-03T00:41:08.318Z,95.90
2019-04-03T00:43:35.637Z,95.90
2019-04-03T00:46:02.957Z,95.90
2019-04-03T00:48:30.242Z,95.90
2019-04-03T00:50:57.674Z,96.00
2019-04-03T00:53:27.335Z,96.00
2019-04-03T00:55:54.749Z,96.10
2019-04-03T00:58:40.664Z,96.20
2019-04-03T01:01:09.296Z,96.20
2019-04-03T01:03:36.692Z,96.20
2019-04-03T01:06:04.336Z,96.20
2019-04-03T01:08:31.712Z,96.20
2019-04-03T01:11:00.435Z,96.20
2019-04-03T01:13:28.204Z,96.20
2019-04-03T01:15:55.577Z,96.50
2019-04-03T01:18:22.911Z,96.20
2019-04-03T01:20:50.235Z,96.20
2019-04-03T01:23:17.458Z,96.20
2019-04-03T01:25:44.800Z,96.20
2019-04-03T01:28:12.051Z,96.30
2019-04-03T01:30:39.459Z,96.30
2019-04-03T01:33:06.822Z,96.30
2019-04-03T01:35:34.132Z,96.40
2019-04-03T01:38:01.438Z,96.50
2019-04-03T01:40:28.785Z,96.50
2019-04-03T01:42:56.107Z,96.40
2019-04-03T01:45:25.271Z,96.30
2019-04-03T01:47:52.559Z,96.10
2019-04-03T01:50:19.761Z,96.00
2019-04-03T01:52:47.102Z,95.90
2019-04-03T01:55:14.401Z,95.90
2019-04-03T01:57:41.764Z,95.80
2019-04-03T02:00:09.122Z,95.70
2019-04-03T02:02:38.213Z,95.60
2019-04-03T02:05:07.376Z,95.70
2019-04-03T02:07:34.699Z,95.70
2019-04-03T02:10:02.067Z,95.70
2019-04-03T02:12:29.402Z,95.80
2019-04-03T02:14:56.728Z,95.90
2019-04-03T02:17:24.222Z,96.00
2019-04-03T02:19:51.615Z,96.00
2019-04-03T02:22:19.068Z,96.00
2019-04-03T02:24:46.610Z,95.90
2019-04-03T02:27:14.032Z,95.90
2019-04-03T02:29:41.343Z,95.80
2019-04-03T02:32:08.589Z,96.20
2019-04-03T02:34:36.646Z,95.90
2019-04-03T02:37:04.519Z,95.90
2019-04-03T02:39:32.146Z,95.80
2019-04-03T02:41:59.595Z,95.70
2019-04-03T02:44:26.926Z,95.60
2019-04-03T02:46:54.346Z,95.50
2019-04-03T02:49:21.570Z,95.40
2019-04-03T02:51:51.887Z,95.30
2019-04-03T02:54:29.274Z,95.30
2019-04-03T02:56:56.608Z,95.40
2019-04-03T02:59:25.957Z,95.40
2019-04-03T03:01:53.101Z,95.50
2019-04-03T03:04:21.974Z,95.50
2019-04-03T03:06:49.671Z,95.50
2019-04-03T03:09:18.082Z,95.50
2019-04-03T03:11:45.405Z,95.50
2019-04-03T03:14:13.453Z,95.30
2019-04-03T03:16:40.985Z,95.00
2019-04-03T03:19:08.400Z,94.50
2019-04-03T03:21:36.322Z,94.20
2019-04-03T03:24:03.901Z,93.90
2019-04-03T03:26:32.062Z,93.70
2019-04-03T03:29:14.206Z,93.80
2019-04-03T03:31:59.138Z,93.30
2019-04-03T03:34:03.007Z,93.10
2019-04-03T03:36:27.724Z,93.00
2019-04-03T03:38:55.371Z,92.80
2019-04-03T03:41:24.387Z,92.70
2019-04-03T03:43:54.249Z,92.50
2019-04-03T03:46:26.277Z,92.40
2019-04-03T03:48:51.871Z,92.20
2019-04-03T03:51:19.288Z,92.10
2019-04-03T03:53:46.927Z,92.00
2019-04-03T03:56:16.306Z,92.00
2019-04-03T03:58:45.704Z,91.90
2019-04-03T04:01:13.180Z,91.70
2019-04-03T04:03:41.712Z,91.60
2019-04-03T04:06:09.585Z,91.40
2019-04-03T04:08:37.786Z,91.10
2019-04-03T04:11:05.319Z,91.10
2019-04-03T04:13:33.442Z,91.00
2019-04-03T04:16:03.877Z,91.10
2019-04-03T04:18:30.757Z,91.10
2019-04-03T04:20:58.123Z,91.10
2019-04-03T04:23:25.513Z,91.10
2019-04-03T04:25:52.733Z,91.20
2019-04-03T04:28:21.083Z,91.20
2019-04-03T04:30:48.416Z,91.20
2019-04-03T04:33:17.223Z,91.30
2019-04-03T04:35:45.125Z,91.20
2019-04-03T04:38:12.485Z,91.30
2019-04-03T04:40:39.837Z,91.40
2019-04-03T04:43:08.257Z,91.50
2019-04-03T04:45:35.851Z,91.60
2019-04-03T04:48:04.029Z,91.80
2019-04-03T04:50:31.339Z,91.90
2019-04-03T04:52:59.327Z,92.00
2019-04-03T04:55:26.759Z,92.10
2019-04-03T04:57:53.995Z,92.20
2019-04-03T05:00:21.300Z,92.40
2019-04-03T05:02:48.863Z,92.60
2019-04-03T05:05:17.853Z,92.90
2019-04-03T05:07:45.089Z,93.00
2019-04-03T05:10:12.337Z,93.10
2019-04-03T05:12:42.607Z,93.40
2019-04-03T05:15:09.419Z,93.50
2019-04-03T05:17:36.625Z,93.70
2019-04-03T05:20:04.475Z,93.90
2019-04-03T05:22:31.677Z,94.10
2019-04-03T05:24:59.593Z,94.20
2019-04-03T05:27:27.338Z,94.40
2019-04-03T05:29:54.692Z,94.50
2019-04-03T05:32:22.542Z,94.60
2019-04-03T05:34:49.877Z,94.70
2019-04-03T05:37:18.064Z,94.80
2019-04-03T05:39:46.735Z,95.00
2019-04-03T05:42:14.058Z,95.20
2019-04-03T05:44:41.376Z,95.30
2019-04-03T05:47:09.038Z,95.40
2019-04-03T05:49:36.239Z,95.40
2019-04-03T05:52:04.563Z,95.50
2019-04-03T05:54:31.995Z,95.60
2019-04-03T05:56:59.346Z,95.70
2019-04-03T05:59:26.913Z,95.90
2019-04-03T06:01:54.269Z,96.00
2019-04-03T06:04:21.573Z,96.20
2019-04-03T06:06:48.805Z,96.30
2019-04-03T06:09:16.746Z,96.40
2019-04-03T06:11:44.158Z,96.40
2019-04-03T06:14:11.388Z,96.40
2019-04-03T06:16:38.905Z,96.40
2019-04-03T06:19:07.278Z,96.50
2019-04-03T06:21:34.555Z,96.50
2019-04-03T06:24:01.853Z,96.50
2019-04-03T06:26:29.172Z,96.50
2019-04-03T06:28:56.479Z,96.50
2019-04-03T06:31:24.341Z,96.20
2019-04-03T06:33:52.953Z,95.90
2019-04-03T06:36:20.300Z,95.80
2019-04-03T06:38:47.852Z,95.80
2019-04-03T06:41:15.105Z,95.80
2019-04-03T06:43:42.560Z,95.80
2019-04-03T06:46:10.431Z,95.80
2019-04-03T06:48:38.096Z,96.00
2019-04-03T06:51:05.326Z,96.00
2019-04-03T06:53:32.575Z,96.10
2019-04-03T06:55:59.767Z,96.10
2019-04-03T06:58:36.929Z,96.10
2019-04-03T07:00:56.245Z,96.00
2019-04-03T07:03:23.734Z,95.80
2019-04-03T07:05:51.349Z,95.60
2019-04-03T07:08:28.673Z,95.50
2019-04-03T07:10:54.785Z,95.40
2019-04-03T07:13:16.852Z,95.40
2019-04-03T07:15:44.189Z,95.30
2019-04-03T07:18:11.525Z,95.30
2019-04-03T07:20:38.898Z,95.30
2019-04-03T07:23:06.208Z,95.40
2019-04-03T07:25:34.444Z,95.40
2019-04-03T07:28:02.009Z,95.50
2019-04-03T07:30:29.319Z,95.60
2019-04-03T07:32:58.309Z,95.70
2019-04-03T07:35:25.712Z,95.90
2019-04-03T07:37:53.014Z,96.00
2019-04-03T07:40:20.946Z,95.90
2019-04-03T07:42:48.628Z,95.80
2019-04-03T07:45:15.861Z,95.70
2019-04-03T07:47:43.408Z,95.90
2019-04-03T07:50:11.633Z,95.90
2019-04-03T07:52:39.168Z,95.70
2019-04-03T07:55:06.484Z,95.50
2019-04-03T07:57:33.836Z,95.30
2019-04-03T08:00:01.033Z,95.30
2019-04-03T08:02:28.318Z,95.40
2019-04-03T08:04:59.262Z,95.60
2019-04-03T08:07:24.772Z,95.60
2019-04-03T08:09:52.109Z,95.70
2019-04-03T08:12:19.306Z,95.70
2019-04-03T08:14:46.656Z,95.50
2019-04-03T08:17:13.857Z,95.80
2019-04-03T08:19:41.495Z,95.50
2019-04-03T08:22:08.867Z,95.60
2019-04-03T08:24:36.235Z,95.60
2019-04-03T08:27:03.723Z,95.50
2019-04-03T08:29:33.725Z,95.30
2019-04-03T08:32:00.256Z,94.90
2019-04-03T08:34:27.467Z,94.60
2019-04-03T08:36:54.814Z,94.50
2019-04-03T08:39:22.148Z,94.50
2019-04-03T08:41:49.711Z,94.60
2019-04-03T08:44:17.036Z,94.60
2019-04-03T08:46:44.632Z,94.20
2019-04-03T08:49:12.078Z,94.30
2019-04-03T08:51:39.273Z,94.20
2019-04-03T08:54:09.819Z,94.00
2019-04-03T08:56:35.676Z,94.00
2019-04-03T08:59:02.891Z,93.90
2019-04-03T09:01:30.305Z,94.00
2019-04-03T09:03:57.628Z,94.10
2019-04-03T09:06:24.951Z,94.20
2019-04-03T09:08:52.542Z,94.40
2019-04-03T09:11:19.970Z,94.30
2019-04-03T09:13:47.412Z,94.20
2019-04-03T09:16:14.726Z,94.40
2019-04-03T09:18:42.146Z,94.70
2019-04-03T09:21:09.513Z,94.40
2019-04-03T09:23:36.709Z,94.50
2019-04-03T09:26:04.015Z,94.60
2019-04-03T09:28:31.258Z,94.60
2019-04-03T09:30:58.804Z,94.50
2019-04-03T09:33:29.009Z,94.60
2019-04-03T09:35:58.398Z,94.50
2019-04-03T09:38:24.435Z,94.10
2019-04-03T09:40:51.752Z,93.20
2019-04-03T09:43:20.100Z,93.20
2019-04-03T09:45:48.235Z,93.10
2019-04-03T09:48:15.442Z,93.30
2019-04-03T09:50:45.706Z,93.40
2019-04-03T09:53:11.860Z,93.10
2019-04-03T09:55:39.088Z,92.90
2019-04-03T09:58:06.349Z,91.20
2019-04-03T10:00:34.158Z,91.20
2019-04-03T10:03:01.825Z,91.60
2019-04-03T10:05:29.717Z,92.00
2019-04-03T10:07:57.165Z,91.90
2019-04-03T10:10:25.889Z,91.50
2019-04-03T10:12:54.231Z,91.20
2019-04-03T10:15:21.972Z,91.10
2019-04-03T10:17:49.320Z,90.80
2019-04-03T10:20:18.220Z,90.90
2019-04-03T10:22:45.791Z,90.60
2019-04-03T10:25:12.999Z,90.10
2019-04-03T10:27:42.539Z,89.30
2019-04-03T10:30:10.802Z,88.50
2019-04-03T10:32:38.010Z,88.20
2019-04-03T10:35:07.353Z,87.70
2019-04-03T10:37:34.532Z,87.50
2019-04-03T10:40:01.842Z,87.60
2019-04-03T10:42:31.208Z,87.70
2019-04-03T10:44:58.336Z,87.50
2019-04-03T10:47:39.371Z,86.90
2019-04-03T10:49:55.319Z,85.80
2019-04-03T10:52:22.680Z,83.60
2019-04-03T10:54:50.461Z,82.20
2019-04-03T10:57:17.856Z,81.90
2019-04-03T10:59:45.298Z,82.10
2019-04-03T11:02:12.637Z,82.30
2019-04-03T11:04:39.975Z,82.10
2019-04-03T11:07:07.313Z,81.10
2019-04-03T11:09:34.701Z,80.80
2019-04-03T11:12:02.058Z,80.40
2019-04-03T11:14:29.405Z,79.70
2019-04-03T11:16:56.877Z,79.00
2019-04-03T11:19:24.300Z,78.70
2019-04-03T11:21:51.856Z,78.10
2019-04-03T11:24:19.303Z,78.00
2019-04-03T11:26:46.742Z,78.30
2019-04-03T11:29:14.011Z,77.50
2019-04-03T11:31:42.637Z,77.50
2019-04-03T11:34:10.568Z,77.20
2019-04-03T11:36:38.188Z,76.60
2019-04-03T11:39:13.467Z,75.70
2019-04-03T11:41:36.643Z,75.30
2019-04-03T11:44:04.100Z,75.00
2019-04-03T11:46:31.458Z,74.50
2019-04-03T11:48:58.883Z,74.20
2019-04-03T11:51:28.934Z,74.00
2019-04-03T11:53:55.462Z,74.50
2019-04-03T11:56:22.854Z,74.60
2019-04-03T11:58:52.069Z,74.20
2019-04-03T12:01:19.776Z,74.00
2019-04-03T12:03:48.274Z,75.40
2019-04-03T12:06:17.976Z,74.90
2019-04-03T12:08:46.070Z,73.40
2019-04-03T12:11:13.647Z,72.90
2019-04-03T12:13:40.970Z,73.10
2019-04-03T12:16:08.397Z,72.30
2019-04-03T12:18:35.654Z,71.40
2019-04-03T12:21:03.093Z,71.80
2019-04-03T12:23:30.415Z,72.50
2019-04-03T12:25:57.615Z,72.60
2019-04-03T12:28:25.123Z,72.30
2019-04-03T12:30:52.625Z,72.50
2019-04-03T12:33:21.189Z,71.20
2019-04-03T12:35:49.477Z,71.50
2019-04-03T12:38:17.210Z,71.90
2019-04-03T12:40:44.512Z,71.80
2019-04-03T12:43:12.213Z,72.30
2019-04-03T12:45:39.513Z,72.70
2019-04-03T12:48:06.860Z,75.00
2019-04-03T12:50:34.050Z,77.30
2019-04-03T12:53:01.733Z,77.60
2019-04-03T12:55:29.186Z,77.70
2019-04-03T12:57:56.511Z,77.70
2019-04-03T13:00:23.917Z,77.70
2019-04-03T13:02:52.421Z,77.80
2019-04-03T13:05:20.260Z,78.00
2019-04-03T13:07:48.014Z,77.80
2019-04-03T13:10:15.590Z,78.00
2019-04-03T13:12:42.921Z,78.40
2019-04-03T13:15:10.826Z,78.10
2019-04-03T13:17:38.268Z,78.00
2019-04-03T13:20:06.644Z,77.80
2019-04-03T13:22:34.391Z,77.70
2019-04-03T13:25:01.863Z,77.10
2019-04-03T13:27:31.749Z,76.50
2019-04-03T13:29:58.417Z,76.20
2019-04-03T13:32:25.782Z,76.10
2019-04-03T13:34:53.129Z,75.90
2019-04-03T13:37:23.237Z,75.60
2019-04-03T13:39:49.555Z,75.90
2019-04-03T13:42:16.755Z,75.90
2019-04-03T13:44:44.060Z,76.00
2019-04-03T13:47:11.574Z,75.90
2019-04-03T13:49:38.956Z,76.30
2019-04-03T13:52:08.989Z,76.60
2019-04-03T13:54:35.662Z,76.70
2019-04-03T13:57:03.151Z,77.00
2019-04-03T13:59:30.397Z,76.60
2019-04-03T14:01:57.601Z,76.30
2019-04-03T14:04:24.960Z,75.70
2019-04-03T14:06:52.682Z,75.60
2019-04-03T14:09:20.702Z,75.60
2019-04-03T14:11:48.077Z,75.30
2019-04-03T14:14:16.103Z,75.30
2019-04-03T14:16:43.494Z,75.10
2019-04-03T14:19:12.717Z,74.90
2019-04-03T14:21:40.039Z,74.80
2019-04-03T14:24:08.945Z,74.80
2019-04-03T14:26:36.365Z,75.00
2019-04-03T14:29:04.248Z,75.10
2019-04-03T14:31:36.523Z,75.10
2019-04-03T14:34:02.128Z,75.20
2019-04-03T14:36:29.427Z,75.60
2019-04-03T14:38:56.704Z,75.80
2019-04-03T14:41:24.072Z,76.30
2019-04-03T14:43:52.016Z,76.70
2019-04-03T14:46:19.424Z,76.50
2019-04-03T14:48:46.956Z,76.10
2019-04-03T14:51:14.350Z,74.00
2019-04-03T14:53:41.575Z,73.40
2019-04-03T14:56:08.781Z,71.20
2019-04-03T14:58:36.199Z,71.30
2019-04-03T15:01:03.409Z,71.10
2019-04-03T15:03:33.436Z,70.50
2019-04-03T15:06:00.368Z,70.40
2019-04-03T15:08:28.153Z,70.50
2019-04-03T15:10:55.714Z,70.50
2019-04-03T15:13:23.280Z,70.60
2019-04-03T15:15:51.017Z,70.90
2019-04-03T15:18:18.639Z,70.70
2019-04-03T15:20:46.744Z,70.60
2019-04-03T15:23:15.323Z,70.60
2019-04-03T15:25:43.616Z,70.60
2019-04-03T15:28:11.059Z,71.00
2019-04-03T15:30:38.406Z,71.40
2019-04-03T15:33:05.865Z,72.20
2019-04-03T15:35:34.323Z,72.50
2019-04-03T15:38:01.676Z,73.50
2019-04-03T15:40:29.817Z,73.10
2019-04-03T15:42:57.429Z,72.90
2019-04-03T15:45:25.505Z,72.20
2019-04-03T15:47:56.768Z,72.50
2019-04-03T15:50:22.976Z,72.80
2019-04-03T15:52:50.759Z,73.20
2019-04-03T15:55:18.628Z,73.30
2019-04-03T15:57:45.880Z,72.80
2019-04-03T16:00:14.676Z,72.50
2019-04-03T16:02:44.446Z,72.10
2019-04-03T16:05:11.353Z,72.60
2019-04-03T16:07:41.566Z,71.30
2019-04-03T16:10:08.366Z,71.70
2019-04-03T16:12:36.495Z,71.30
2019-04-03T16:15:08.522Z,72.30
2019-04-03T16:17:37.583Z,73.00
2019-04-03T16:20:04.808Z,73.80
2019-04-03T16:22:32.329Z,74.30
2019-04-03T16:25:00.012Z,75.90
2019-04-03T16:27:29.124Z,75.40
2019-04-03T16:29:56.464Z,75.70
2019-04-03T16:32:25.926Z,76.10
2019-04-03T16:34:52.992Z,76.10
2019-04-03T16:37:21.383Z,76.00
2019-04-03T16:39:49.438Z,76.30
2019-04-03T16:42:17.122Z,76.50
2019-04-03T16:44:44.606Z,76.40
2019-04-03T16:47:13.038Z,76.90
2019-04-03T16:49:41.137Z,77.80
2019-04-03T16:52:08.454Z,78.60
2019-04-03T16:54:36.350Z,79.40
2019-04-03T16:57:03.806Z,80.10
2019-04-03T16:59:31.711Z,80.60
2019-04-03T17:01:59.233Z,81.50
2019-04-03T17:04:28.595Z,81.80
2019-04-03T17:06:55.819Z,82.30
2019-04-03T17:09:23.193Z,83.00
2019-04-03T17:11:51.148Z,84.20
2019-04-03T17:14:18.501Z,83.60
2019-04-03T17:16:46.968Z,84.20
2019-04-03T17:19:15.815Z,84.70
2019-04-03T17:21:43.863Z,85.70
2019-04-03T17:24:11.160Z,86.60
2019-04-03T17:26:48.859Z,86.90
2019-04-03T17:29:08.095Z,87.60
2019-04-03T17:31:35.488Z,88.10
2019-04-03T17:34:06.034Z,88.40
2019-04-03T17:36:32.116Z,88.50
2019-04-03T17:38:59.844Z,88.70
2019-04-03T17:41:30.487Z,89.20
2019-04-03T17:43:57.924Z,89.30
2019-04-03T17:46:25.164Z,89.70
2019-04-03T17:48:53.733Z,90.00
2019-04-03T17:51:21.750Z,90.10
2019-04-03T17:53:48.940Z,90.10
2019-04-03T17:56:16.286Z,90.30
2019-04-03T17:58:43.516Z,90.50
2019-04-03T18:01:10.967Z,90.60
2019-04-03T18:03:38.353Z,90.70
2019-04-03T18:06:05.774Z,90.80
2019-04-03T18:08:33.215Z,91.00
2019-04-03T18:11:00.686Z,91.10
2019-04-03T18:13:27.893Z,91.20
2019-04-03T18:15:58.546Z,91.20
2019-04-03T18:18:24.584Z,91.30
2019-04-03T18:20:51.817Z,91.40
2019-04-03T18:23:21.412Z,91.50
2019-04-03T18:25:48.282Z,91.80
2019-04-03T18:28:15.636Z,91.90
2019-04-03T18:30:43.093Z,92.30
2019-04-03T18:33:10.501Z,92.00
2019-04-03T18:35:37.820Z,92.10
2019-04-03T18:38:07.737Z,92.20
2019-04-03T18:40:34.702Z,92.20
2019-04-03T18:43:02.052Z,92.20
2019-04-03T18:45:29.367Z,92.30
2019-04-03T18:47:56.819Z,92.30
2019-04-03T18:50:24.187Z,92.30
2019-04-03T18:52:51.597Z,92.30
2019-04-03T18:55:18.917Z,92.30
2019-04-03T18:57:46.143Z,92.30
2019-04-03T19:00:13.679Z,92.20
2019-04-03T19:02:40.912Z,92.10
2019-04-03T19:05:10.086Z,91.90
2019-04-03T19:07:37.502Z,91.60
2019-04-03T19:10:07.604Z,91.40
2019-04-03T19:12:36.225Z,91.40
2019-04-03T19:15:04.078Z,91.00
2019-04-03T19:17:31.291Z,91.00
2019-04-03T19:20:09.799Z,91.00
2019-04-03T19:22:27.796Z,91.00
2019-04-03T19:24:55.144Z,91.10
2019-04-03T19:27:22.498Z,91.10
2019-04-03T19:29:49.880Z,91.00
2019-04-03T19:32:17.137Z,91.10
2019-04-03T19:34:44.465Z,91.10
2019-04-03T19:37:11.900Z,91.20
2019-04-03T19:39:39.282Z,91.30
2019-04-03T19:42:06.617Z,91.60
2019-04-03T19:44:33.969Z,91.90
2019-04-03T19:47:01.200Z,92.30
2019-04-03T19:49:28.576Z,92.40
2019-04-03T19:51:55.903Z,92.60
2019-04-03T19:54:23.293Z,92.80
2019-04-03T19:56:50.631Z,92.90
2019-04-03T19:59:18.059Z,93.00
2019-04-03T20:01:45.413Z,93.10
2019-04-03T20:04:15.765Z,93.20
2019-04-03T20:06:42.021Z,93.20
2019-04-03T20:09:09.355Z,93.10
2019-04-03T20:11:36.781Z,93.10
2019-04-03T20:14:04.129Z,93.10
2019-04-03T20:16:31.455Z,93.10
2019-04-03T20:18:58.785Z,93.20
2019-04-03T20:21:26.133Z,93.20
2019-04-03T20:23:53.465Z,93.30
2019-04-03T20:26:20.794Z,93.40
2019-04-03T20:28:48.118Z,93.50
2019-04-03T20:31:15.439Z,93.60
2019-04-03T20:33:42.940Z,93.70
2019-04-03T20:36:10.332Z,93.80
2019-04-03T20:38:37.786Z,94.00
2019-04-03T20:41:05.214Z,94.10
2019-04-03T20:43:32.593Z,94.20
2019-04-03T20:45:59.960Z,94.30
2019-04-03T20:48:28.281Z,94.30
2019-04-03T20:50:56.137Z,94.40
2019-04-03T20:53:23.452Z,94.50
2019-04-03T20:55:50.807Z,94.50
2019-04-03T20:58:18.228Z,94.50
2019-04-03T21:00:49.198Z,94.50
2019-04-03T21:03:14.901Z,94.80
2019-04-03T21:05:42.125Z,94.40
2019-04-03T21:08:09.478Z,94.40
2019-04-03T21:10:36.802Z,94.40
2019-04-03T21:13:04.188Z,94.40
2019-04-03T21:15:31.515Z,94.40
2019-04-03T21:17:58.844Z,94.50
2019-04-03T21:20:26.186Z,94.60
2019-04-03T21:22:53.547Z,94.70
2019-04-03T21:25:20.775Z,94.70
2019-04-03T21:27:48.118Z,94.80
2019-04-03T21:30:15.694Z,94.90
2019-04-03T21:32:43.052Z,94.90
2019-04-03T21:35:10.369Z,94.90
2019-04-03T21:37:39.738Z,95.00
2019-04-03T21:40:06.822Z,95.10
2019-04-03T21:42:34.304Z,95.20
2019-04-03T21:45:02.743Z,95.20
2019-04-03T21:47:30.927Z,95.20
2019-04-03T21:49:58.275Z,95.20
2019-04-03T21:52:25.623Z,95.20
2019-04-03T21:54:53.066Z,95.20
2019-04-03T21:57:20.731Z,95.20
2019-04-03T21:59:48.077Z,95.30
2019-04-03T22:02:16.260Z,95.40
2019-04-03T22:04:44.092Z,95.50
2019-04-03T22:07:11.449Z,95.60
2019-04-03T22:09:38.929Z,95.60
2019-04-03T22:12:06.591Z,95.70
2019-04-03T22:14:33.990Z,95.90
2019-04-03T22:17:01.373Z,95.90
2019-04-03T22:19:28.727Z,95.90
2019-04-03T22:21:56.095Z,96.00
2019-04-03T22:24:23.453Z,96.00
2019-04-03T22:26:50.812Z,96.00
2019-04-03T22:29:20.437Z,96.00
2019-04-03T22:31:47.395Z,96.10
2019-04-03T22:34:14.729Z,96.10
2019-04-03T22:36:42.074Z,96.10
2019-04-03T22:39:09.762Z,96.10
2019-04-03T22:41:37.101Z,96.20
2019-04-03T22:44:04.325Z,96.10
2019-04-03T22:46:31.552Z,96.10
2019-04-03T22:49:00.033Z,96.10
2019-04-03T22:51:27.973Z,96.10
2019-04-03T22:53:55.309Z,96.10
2019-04-03T22:56:22.542Z,96.10
2019-04-03T22:58:52.573Z,96.10
2019-04-03T23:01:19.053Z,96.10
2019-04-03T23:03:49.044Z,96.10
2019-04-03T23:06:16.859Z,96.10
2019-04-03T23:08:44.665Z,96.10
2019-04-03T23:11:12.017Z,96.10
2019-04-03T23:13:39.439Z,96.20
2019-04-03T23:16:06.736Z,96.10
2019-04-03T23:18:34.085Z,96.10
2019-04-03T23:21:01.437Z,96.10
2019-04-03T23:23:28.775Z,96.00
2019-04-03T23:25:56.109Z,96.00
2019-04-03T23:28:23.461Z,96.00
2019-04-03T23:30:50.791Z,96.00
2019-04-03T23:33:18.145Z,95.80
2019-04-03T23:35:45.497Z,95.80
2019-04-03T23:38:12.835Z,95.80
2019-04-03T23:40:40.189Z,95.80
2019-04-03T23:43:08.962Z,95.80
2019-04-03T23:45:36.849Z,95.80
2019-04-03T23:48:04.221Z,95.80
2019-04-03T23:50:31.581Z,96.20
2019-04-03T23:53:00.725Z,95.90
2019-04-03T23:55:28.185Z,95.90
2019-04-03T23:57:55.543Z,96.00
